首页
METAR-TAF:

METAR-TAF

机场 :

普林斯顿, 不列颠哥伦比亚, 加拿大

纬度: 49-28N, 经度: 120-31W, 海拔: 700米

当前天气观测

该预报发布于38分钟前的19:00 UTC
风速3节,风向南转西南,在南转南东西转西南之间变化
温度 7°C
湿度 81%
气压 1015 hPa
能見度: 16.1公里
少量云层高于1000英尺
散云层高于1500英尺
散云层高于2100英尺
多云层高于4900英尺
多云层高于7200英尺
碎片雾

METAR: CYDC 171900Z 20003KT 160V240 10SM BCFG FEW010 SCT015 SCT021 BKN049 BKN072 07/04 A2998 RMK ST2SF2SC1SC2AC1 SC TR SLP167

时间: 11:38 (19:38 UTC)


TAF: 丢失

超过4000个机场的气象观测和天气预报(METAR&TAF报告)。

可查询的气象台以黄色和红色小点在地图上表示。

将鼠标移到小点上方,可查看气象台名称。

然后点击查看天气观测和预报。

如需切换地图:点击带黑十字的绿色按钮放大地图;点击带横线的绿色按钮缩小地图;或者点击绿色箭头查看邻近地区的地图。


METAR-TAF: